Millersville, MD (21108)

2:33 AM EDT on September 04, 2015 (GMT -0400)
KP4IP-WX | | Change Station
CLOSE
Current Station
Personal Weather Station
Location: Millersville, MD
Elevation: 116 ft
Nearby Weather Stations

Elev 116 ft 39.11 °N, 76.63 °W | Updated 1 second ago

Partly Cloudy
Partly Cloudy
71.8 °F
Feels Like 71 °F
N
0.0
Wind Variable Wind from South
Gusts 0.0 mph

Today
High -- | Low -- °F
--% Chance of Precip.
Yesterday
High -- | Low -- °F
Precip. -- in
6:37 AM 7:32 PM
Waning Gibbous, 62% visible
Pressure 29.89 in
Visibility 8.0 miles
Clouds Few 20000 ft
Mostly Cloudy 25000 ft
Heat Index 71 °F
Dew Point 66 °F
Humidity 83%
Rainfall 0.00 in
Snow Depth Not available.
UV 0 out of 12
Pollen 10.10 out of 12
Air Quality Not available.
Flu Activity Not available.
METAR KBWI 040554Z 00000KT 8SM FEW200 BKN250 22/21 A2989 RMK AO2 SLP121 T02220206 10283 20222 50002
Pressure 29.89 in
Visibility 8.0 miles
Clouds Few 20000 ft
Mostly Cloudy 25000 ft
Heat Index 71 °F
Dew Point 66 °F
Humidity 83%
Rainfall 0.00 in
Snow Depth Not available.
UV 0 out of 12
Pollen 10.10 out of 12
Air Quality Not available.
Flu Activity Not available.
METAR KBWI 040554Z 00000KT 8SM FEW200 BKN250 22/21 A2989 RMK AO2 SLP121 T02220206 10283 20222 50002

10-Day Weather Forecast

×

Almanac

Astronomy

Sep. 04, 2015 Rise Set
Actual Time
Civil Twilight
Nautical Twilight
Astronomical Twilight
Moon
Length of Visible Light
Length of Day
Tomorrow will be .
, % of the Moon is Illuminated

Today's Extremes

State Highs State Lows

Community

WunderPhotos

Upload Photos

1,852,132 photos uploaded!

WunderBlogs® & News

Nearby

Air Quality

  Air Quality AQ Index Pollutant
Not available.

Snow Depth

Station Depth Elevation

Earthquake Activity

City Distance Mag. Time & Date
Minimum magnitude displayed is 2.5.

Coastal Water Temperatures

Place Temperature

Stations

Nearby Weather Stations

Station Location Temp. Windchill Dew Point Humidity Wind Precip. Elev Updated Type